Harvest Peace — V7VE7 — position and weather

sailwx.info

Track history (hours):
 
Tides and Currents Weather Stations Pressure Air Temp Water Temp Dewpoint Dewpoint Depression Visibility Wind Speed Wind Dir Waves Ship Positions

Harvest Peace

Last reported at 2014-Dec-12 18:30 UTC. Time now 2014-Dec-18 11:32 UTC.
Position N 32°53' E 034°54'.

Length 225 m; draft 7.5 m.

Type: Cargo ship. MMSI: 538004103.

Date/timePositionNaut miles runAvg speedWind from/ knotsBaromVisibWave heightAir tempDewpointWater temp
2014-Dec-12 18:30N 32°53' E 034°54'9 9.2
2014-Dec-12 17:33N 32°46' E 034°47'1313.2
2014-Dec-12 16:33N 32°33' E 034°43'1413.7
2014-Dec-12 15:33N 32°20' E 034°39'  
2014-Dec-08 22:31N 31°50' E 034°39'  
2014-Dec-05 20:32N 31°51' E 034°36'0 0.0
2014-Dec-05 19:32N 31°51' E 034°36'0 0.0
2014-Dec-05 15:26N 31°51' E 034°36'0 0.0
2014-Dec-05 14:08N 31°51' E 034°36'0 0.0
2014-Dec-05 13:26N 31°51' E 034°36'0 0.0
2014-Dec-05 12:33N 31°51' E 034°36'0 0.0
2014-Dec-05 11:33N 31°51' E 034°36'14 3.4
2014-Dec-05 07:28N 31°55' E 034°21'1111.5
2014-Dec-05 06:33N 31°60' E 034°10'1111.2
2014-Dec-05 05:33N 32°05' E 033°58'1211.2
2014-Dec-05 04:31N 32°10' E 033°46'1111.3
2014-Dec-05 03:33N 32°13' E 033°33'1111.4
2014-Dec-05 02:33N 32°16' E 033°20'1111.4
2014-Dec-05 01:33N 32°19' E 033°07'1511.5
2014-Dec-05 00:17N 32°23' E 032°51'1211.5
2014-Dec-04 23:17N 32°27' E 032°38'4511.7
2014-Dec-04 19:27N 32°40' E 031°47'1011.4
2014-Dec-04 18:33N 32°43' E 031°35'22911.4
2014-Dec-03 22:26N 33°48' E 027°12'1111.2
2014-Dec-03 21:26N 33°51' E 026°59'4410.8
2014-Dec-03 17:22N 34°03' E 026°08'  
Track history (hours):
 
Tides and Currents Weather Stations Pressure Air Temp Water Temp Dewpoint Dewpoint Depression Visibility Wind Speed Wind Dir Waves Ship Positions

Harvest Peace

Last reported at 2014-Dec-12 18:30 UTC. Time now 2014-Dec-18 11:32 UTC.
Position N 32°53' E 034°54'.

Length 225 m; draft 7.5 m.

Type: Cargo ship. MMSI: 538004103.

Date/timePositionNaut miles runAvg speedWind from/ knotsBaromVisibWave heightAir tempDewpointWater temp
2014-Dec-12 18:30N 32°53' E 034°54'9 9.2
2014-Dec-12 17:33N 32°46' E 034°47'1313.2
2014-Dec-12 16:33N 32°33' E 034°43'1413.7
2014-Dec-12 15:33N 32°20' E 034°39'  
2014-Dec-08 22:31N 31°50' E 034°39'  
2014-Dec-05 20:32N 31°51' E 034°36'0 0.0
2014-Dec-05 19:32N 31°51' E 034°36'0 0.0
2014-Dec-05 15:26N 31°51' E 034°36'0 0.0
2014-Dec-05 14:08N 31°51' E 034°36'0 0.0
2014-Dec-05 13:26N 31°51' E 034°36'0 0.0
2014-Dec-05 12:33N 31°51' E 034°36'0 0.0
2014-Dec-05 11:33N 31°51' E 034°36'14 3.4
2014-Dec-05 07:28N 31°55' E 034°21'1111.5
2014-Dec-05 06:33N 31°60' E 034°10'1111.2
2014-Dec-05 05:33N 32°05' E 033°58'1211.2
2014-Dec-05 04:31N 32°10' E 033°46'1111.3
2014-Dec-05 03:33N 32°13' E 033°33'1111.4
2014-Dec-05 02:33N 32°16' E 033°20'1111.4
2014-Dec-05 01:33N 32°19' E 033°07'1511.5
2014-Dec-05 00:17N 32°23' E 032°51'1211.5
2014-Dec-04 23:17N 32°27' E 032°38'4511.7
2014-Dec-04 19:27N 32°40' E 031°47'1011.4
2014-Dec-04 18:33N 32°43' E 031°35'22911.4
2014-Dec-03 22:26N 33°48' E 027°12'1111.2
2014-Dec-03 21:26N 33°51' E 026°59'4410.8
2014-Dec-03 17:22N 34°03' E 026°08'  

Dump ship's entire track history